Time;durP1;ratioP1;P1;durP2;ratioP2;P2;SDS_P1;SDS_P2;PMS_P1;PMS_P2;Temp;Humidity;BMP_temperature;BMP_pressure;BME280_temperature;BME280_humidity;BME280_pressure;Samples;Min_cycle;Max_cycle;Signal;HPM_P1;HPM_P2
2022/03/09 00:00:51;;;;;;;;;62.75;51.25;;;;;;;;5067550;27;52774;-61
2022/03/09 00:03:16;;;;;;;;;56.75;43.25;;;;;;;;5070580;27;50999;-61
2022/03/09 00:05:42;;;;;;;;;58.50;47.25;;;;;;;;5064197;27;52175;-61
2022/03/09 00:08:07;;;;;;;;;63.25;50.00;;;;;;;;5070815;28;51057;-61
2022/03/09 00:10:32;;;;;;;;;60.75;50.50;;;;;;;;5066938;27;51203;-60
2022/03/09 00:12:57;;;;;;;;;60.75;47.25;;;;;;;;5068554;28;50964;-60
2022/03/09 00:15:23;;;;;;;;;59.25;48.75;;;;;;;;5069051;27;51315;-61
2022/03/09 00:17:48;;;;;;;;;59.75;48.75;;;;;;;;5070367;27;51124;-60
2022/03/09 00:20:13;;;;;;;;;58.50;47.25;;;;;;;;5070523;28;51106;-60
2022/03/09 00:22:38;;;;;;;;;63.25;47.75;;;;;;;;5068884;27;51212;-60
2022/03/09 00:25:04;;;;;;;;;64.50;49.50;;;;;;;;5071144;28;51095;-61
2022/03/09 00:27:32;;;;;;;;;58.25;48.00;;;;;;;;5069445;28;51523;-60
2022/03/09 00:29:57;;;;;;;;;54.00;44.75;;;;;;;;5069855;28;51050;-59
2022/03/09 00:32:23;;;;;;;;;58.50;48.50;;;;;;;;5069689;27;51117;-59
2022/03/09 00:34:48;;;;;;;;;60.75;50.00;;;;;;;;5071517;27;51241;-60
2022/03/09 00:37:13;;;;;;;;;52.25;44.50;;;;;;;;5067997;28;52181;-60
2022/03/09 00:39:38;;;;;;;;;62.25;48.00;;;;;;;;5070714;28;51269;-61
2022/03/09 00:42:04;;;;;;;;;60.25;50.00;;;;;;;;5069739;27;51024;-60
2022/03/09 00:44:29;;;;;;;;;63.00;50.25;;;;;;;;5070971;28;51144;-60
2022/03/09 00:46:54;;;;;;;;;65.25;52.75;;;;;;;;5073190;28;51411;-60
2022/03/09 00:49:19;;;;;;;;;64.00;51.50;;;;;;;;5073861;27;52147;-60
2022/03/09 00:51:44;;;;;;;;;64.00;52.50;;;;;;;;5073353;27;51382;-60
2022/03/09 00:54:10;;;;;;;;;65.00;51.75;;;;;;;;5069243;28;50992;-60
2022/03/09 00:56:35;;;;;;;;;66.75;52.50;;;;;;;;5067498;27;51322;-60
2022/03/09 00:59:00;;;;;;;;;62.00;49.00;;;;;;;;5070751;27;52046;-60
2022/03/09 01:01:25;;;;;;;;;67.00;52.75;;;;;;;;5071724;27;51201;-60
2022/03/09 01:03:51;;;;;;;;;59.75;48.00;;;;;;;;5069062;27;51289;-60
2022/03/09 01:06:16;;;;;;;;;63.50;52.00;;;;;;;;5077225;27;51287;-59
2022/03/09 01:08:42;;;;;;;;;63.75;50.75;;;;;;;;5105284;27;53719;-60
2022/03/09 01:11:07;;;;;;;;;68.50;52.00;;;;;;;;5067652;27;51060;-60
2022/03/09 01:13:32;;;;;;;;;65.50;52.50;;;;;;;;5071090;27;50973;-60
2022/03/09 01:15:57;;;;;;;;;62.00;50.25;;;;;;;;5071577;27;51695;-60
2022/03/09 01:18:24;;;;;;;;;64.00;53.50;;;;;;;;5073444;27;52271;-61
2022/03/09 01:20:49;;;;;;;;;62.50;50.75;;;;;;;;5073447;27;51209;-60
2022/03/09 01:23:15;;;;;;;;;68.00;54.75;;;;;;;;5072257;27;51345;-61
2022/03/09 01:25:40;;;;;;;;;56.00;45.75;;;;;;;;5072054;28;51182;-61
2022/03/09 01:28:05;;;;;;;;;63.00;49.00;;;;;;;;5071619;27;51113;-60
2022/03/09 01:30:31;;;;;;;;;62.75;53.00;;;;;;;;5073692;28;51172;-60
2022/03/09 01:32:56;;;;;;;;;66.00;53.00;;;;;;;;5072824;28;51081;-60
2022/03/09 01:35:21;;;;;;;;;56.00;45.75;;;;;;;;5074316;28;51209;-61
2022/03/09 01:37:46;;;;;;;;;63.50;51.25;;;;;;;;5086383;27;53105;-61
2022/03/09 01:40:12;;;;;;;;;65.75;50.75;;;;;;;;5075356;28;51131;-61
2022/03/09 01:42:37;;;;;;;;;63.50;48.50;;;;;;;;5075243;28;51065;-60
2022/03/09 01:45:04;;;;;;;;;67.50;53.75;;;;;;;;5076413;28;51012;-59
2022/03/09 01:47:30;;;;;;;;;65.00;52.75;;;;;;;;5074372;28;51060;-60
2022/03/09 01:49:55;;;;;;;;;61.00;50.00;;;;;;;;5073128;28;51230;-60
2022/03/09 01:52:20;;;;;;;;;66.75;53.75;;;;;;;;5073237;28;50900;-60
2022/03/09 01:54:45;;;;;;;;;61.25;50.25;;;;;;;;5074118;28;51045;-60
2022/03/09 01:57:11;;;;;;;;;66.75;53.50;;;;;;;;5071849;28;51797;-61
2022/03/09 01:59:36;;;;;;;;;68.50;53.00;;;;;;;;5073159;28;51035;-61
2022/03/09 02:02:02;;;;;;;;;62.00;48.50;;;;;;;;5073574;27;51130;-59
2022/03/09 02:04:27;;;;;;;;;65.00;50.00;;;;;;;;5071868;27;51353;-59
2022/03/09 02:06:52;;;;;;;;;62.00;51.00;;;;;;;;5069128;28;52234;-59
2022/03/09 02:12:01;;;;;;;;;66.00;52.75;;;;;;;;5066099;28;51061;-59
2022/03/09 02:14:27;;;;;;;;;57.50;47.75;;;;;;;;5073522;28;50939;-60
2022/03/09 02:16:52;;;;;;;;;62.50;52.00;;;;;;;;5072914;28;51691;-60
2022/03/09 02:19:17;;;;;;;;;58.25;46.25;;;;;;;;5071865;28;51478;-60
2022/03/09 02:21:45;;;;;;;;;62.50;50.50;;;;;;;;5073021;27;50983;-60
2022/03/09 02:24:10;;;;;;;;;61.25;50.25;;;;;;;;5070386;27;51307;-60
2022/03/09 02:26:36;;;;;;;;;65.50;52.50;;;;;;;;5071029;28;51958;-60
2022/03/09 02:29:01;;;;;;;;;61.00;49.75;;;;;;;;5072435;27;51062;-60
2022/03/09 02:31:27;;;;;;;;;64.75;52.00;;;;;;;;5072129;28;51125;-60
2022/03/09 02:33:52;;;;;;;;;67.75;48.75;;;;;;;;5071424;27;51502;-60
2022/03/09 02:36:20;;;;;;;;;60.00;49.50;;;;;;;;5071134;27;51993;-60
2022/03/09 02:38:45;;;;;;;;;55.25;47.00;;;;;;;;5069715;27;51158;-60
2022/03/09 02:41:10;;;;;;;;;53.50;44.25;;;;;;;;5071223;28;51523;-60
2022/03/09 02:43:35;;;;;;;;;54.25;46.25;;;;;;;;5072607;28;51264;-60
2022/03/09 02:46:00;;;;;;;;;59.00;47.50;;;;;;;;5069157;28;53648;-60
2022/03/09 02:48:26;;;;;;;;;55.75;46.25;;;;;;;;5072317;28;51034;-60
2022/03/09 02:50:51;;;;;;;;;56.75;47.00;;;;;;;;5072857;28;51177;-60
2022/03/09 02:53:16;;;;;;;;;60.00;48.75;;;;;;;;5073602;28;51418;-60
2022/03/09 02:55:41;;;;;;;;;60.25;47.00;;;;;;;;5069366;28;51144;-60
2022/03/09 02:58:06;;;;;;;;;59.50;47.50;;;;;;;;5068339;28;51138;-61
2022/03/09 03:00:32;;;;;;;;;54.00;45.00;;;;;;;;5067303;28;51225;-60
2022/03/09 03:02:57;;;;;;;;;54.50;45.00;;;;;;;;5071279;28;51235;-60
2022/03/09 03:05:22;;;;;;;;;58.00;47.25;;;;;;;;5071351;28;52151;-60
2022/03/09 03:07:47;;;;;;;;;58.00;48.00;;;;;;;;5073182;28;51009;-60
2022/03/09 03:10:12;;;;;;;;;59.25;47.25;;;;;;;;5072085;28;50973;-61
2022/03/09 03:12:38;;;;;;;;;56.50;43.50;;;;;;;;5070438;27;50907;-61
2022/03/09 03:15:04;;;;;;;;;59.50;47.75;;;;;;;;5071137;28;53017;-59
2022/03/09 03:17:29;;;;;;;;;63.00;48.75;;;;;;;;5072387;28;51059;-60
2022/03/09 03:19:54;;;;;;;;;62.75;50.50;;;;;;;;5072407;27;51061;-60
2022/03/09 03:22:19;;;;;;;;;67.25;51.00;;;;;;;;5075300;28;50886;-60
2022/03/09 03:24:45;;;;;;;;;63.25;51.25;;;;;;;;5072788;27;51131;-60
2022/03/09 03:27:10;;;;;;;;;60.75;48.75;;;;;;;;5070631;28;51444;-60
2022/03/09 03:29:35;;;;;;;;;60.00;49.50;;;;;;;;5070233;28;51159;-60
2022/03/09 03:32:00;;;;;;;;;63.75;52.00;;;;;;;;5068024;28;51110;-60
2022/03/09 03:34:25;;;;;;;;;61.00;48.25;;;;;;;;5070189;27;53179;-60
2022/03/09 03:36:51;;;;;;;;;61.00;50.25;;;;;;;;5072290;27;51075;-60
2022/03/09 03:39:16;;;;;;;;;65.50;54.00;;;;;;;;5071651;28;50902;-60
2022/03/09 03:41:41;;;;;;;;;64.75;53.25;;;;;;;;5071570;27;50934;-60
2022/03/09 03:44:06;;;;;;;;;67.00;52.25;;;;;;;;5068050;27;52007;-61
2022/03/09 03:46:32;;;;;;;;;69.50;53.00;;;;;;;;5070487;27;51085;-61
2022/03/09 03:48:58;;;;;;;;;70.75;54.25;;;;;;;;5072157;28;51142;-61
2022/03/09 03:51:23;;;;;;;;;66.50;52.50;;;;;;;;5071312;27;51062;-61
2022/03/09 03:53:48;;;;;;;;;66.25;53.75;;;;;;;;5069488;27;52819;-60
2022/03/09 03:56:13;;;;;;;;;60.75;50.50;;;;;;;;5069588;28;51212;-60
2022/03/09 03:58:38;;;;;;;;;68.25;55.00;;;;;;;;5069675;28;51440;-60
2022/03/09 04:01:04;;;;;;;;;67.50;53.75;;;;;;;;5069963;27;51192;-60
2022/03/09 04:03:29;;;;;;;;;67.00;53.00;;;;;;;;5070925;27;51071;-60
2022/03/09 04:05:54;;;;;;;;;66.50;53.50;;;;;;;;5071419;27;51151;-60
2022/03/09 04:08:19;;;;;;;;;69.25;53.50;;;;;;;;5072496;28;50925;-60
2022/03/09 04:10:44;;;;;;;;;65.50;54.25;;;;;;;;5071518;27;51227;-60
2022/03/09 04:13:10;;;;;;;;;65.00;50.50;;;;;;;;5068605;27;51014;-60
2022/03/09 04:15:35;;;;;;;;;67.75;53.75;;;;;;;;5064753;27;51171;-60
2022/03/09 04:18:00;;;;;;;;;64.75;52.50;;;;;;;;5072325;28;51021;-60
2022/03/09 04:20:25;;;;;;;;;72.00;53.75;;;;;;;;5074290;27;51154;-60
2022/03/09 04:22:51;;;;;;;;;67.25;52.00;;;;;;;;5075469;27;51088;-60
2022/03/09 04:25:16;;;;;;;;;73.00;57.00;;;;;;;;5073525;27;51633;-60
2022/03/09 04:27:42;;;;;;;;;70.00;55.75;;;;;;;;5075612;28;51031;-60
2022/03/09 04:30:08;;;;;;;;;68.75;54.25;;;;;;;;5073417;28;51457;-60
2022/03/09 04:32:34;;;;;;;;;72.75;56.50;;;;;;;;5070979;27;51906;-60
2022/03/09 04:34:59;;;;;;;;;75.00;57.50;;;;;;;;5074851;27;51228;-60
2022/03/09 04:37:24;;;;;;;;;69.75;55.00;;;;;;;;5075521;28;51139;-60
2022/03/09 04:39:50;;;;;;;;;69.00;55.00;;;;;;;;5074599;27;51351;-60
2022/03/09 04:42:15;;;;;;;;;70.25;55.00;;;;;;;;5074754;28;51944;-60
2022/03/09 04:44:41;;;;;;;;;74.50;58.50;;;;;;;;5074949;28;51077;-61
2022/03/09 04:47:06;;;;;;;;;69.25;55.50;;;;;;;;5074060;28;50985;-60
2022/03/09 04:49:31;;;;;;;;;72.75;57.00;;;;;;;;5070549;27;51018;-60
2022/03/09 04:51:56;;;;;;;;;73.75;57.25;;;;;;;;5075420;28;52014;-60
2022/03/09 04:54:22;;;;;;;;;72.75;56.25;;;;;;;;5073720;27;51156;-60
2022/03/09 04:56:47;;;;;;;;;69.75;53.75;;;;;;;;5072925;28;51131;-59
2022/03/09 04:59:13;;;;;;;;;70.25;56.25;;;;;;;;5074796;28;51067;-60
2022/03/09 05:01:38;;;;;;;;;69.00;54.00;;;;;;;;5075763;28;51790;-60
2022/03/09 05:04:03;;;;;;;;;68.00;54.00;;;;;;;;5076114;28;50969;-60
2022/03/09 05:06:28;;;;;;;;;65.75;52.00;;;;;;;;5073077;27;51239;-60
2022/03/09 05:08:54;;;;;;;;;69.00;54.75;;;;;;;;5062125;28;51461;-61
2022/03/09 05:11:19;;;;;;;;;70.00;56.00;;;;;;;;5075097;28;51043;-61
2022/03/09 05:13:44;;;;;;;;;66.50;54.75;;;;;;;;5074641;28;51120;-61
2022/03/09 05:16:09;;;;;;;;;67.00;53.25;;;;;;;;5076180;28;51043;-61
2022/03/09 05:18:37;;;;;;;;;63.00;51.00;;;;;;;;5074653;28;51165;-61
2022/03/09 05:21:03;;;;;;;;;62.50;52.50;;;;;;;;5075088;27;51017;-61
2022/03/09 05:23:28;;;;;;;;;61.75;51.25;;;;;;;;5072071;28;51016;-61
2022/03/09 05:25:54;;;;;;;;;63.00;50.75;;;;;;;;5074242;27;51218;-61
2022/03/09 05:28:19;;;;;;;;;59.75;49.00;;;;;;;;5074796;27;51097;-61
2022/03/09 05:30:44;;;;;;;;;59.50;49.00;;;;;;;;5073147;28;52418;-61
2022/03/09 05:33:10;;;;;;;;;60.25;49.75;;;;;;;;5072449;28;51011;-63
2022/03/09 05:35:37;;;;;;;;;64.25;50.75;;;;;;;;5074344;28;52156;-60
2022/03/09 05:38:02;;;;;;;;;60.50;50.00;;;;;;;;5073297;27;51246;-59
2022/03/09 05:40:27;;;;;;;;;61.25;48.00;;;;;;;;5074372;27;51224;-60
2022/03/09 05:42:53;;;;;;;;;51.25;41.00;;;;;;;;5075899;27;51035;-61
2022/03/09 05:45:18;;;;;;;;;63.25;50.50;;;;;;;;5070188;27;51251;-59
2022/03/09 05:47:43;;;;;;;;;57.25;46.50;;;;;;;;5073294;28;51114;-61
2022/03/09 05:50:09;;;;;;;;;59.75;49.25;;;;;;;;5071779;28;52190;-61
2022/03/09 05:52:34;;;;;;;;;56.75;46.75;;;;;;;;5073035;28;51040;-61
2022/03/09 05:54:59;;;;;;;;;60.25;48.75;;;;;;;;5073494;28;51072;-61
2022/03/09 05:57:24;;;;;;;;;59.50;49.50;;;;;;;;5072653;28;51128;-61
2022/03/09 05:59:50;;;;;;;;;60.00;49.50;;;;;;;;5071106;28;52773;-61
2022/03/09 06:02:15;;;;;;;;;58.75;50.00;;;;;;;;5073294;28;51045;-61
2022/03/09 06:04:40;;;;;;;;;64.00;51.00;;;;;;;;5071100;28;52066;-60
2022/03/09 06:07:06;;;;;;;;;62.75;51.00;;;;;;;;5073379;28;51165;-60
2022/03/09 06:09:31;;;;;;;;;62.25;49.25;;;;;;;;5071814;28;51046;-60
2022/03/09 06:11:56;;;;;;;;;59.00;48.50;;;;;;;;5071308;27;51138;-60
2022/03/09 06:14:21;;;;;;;;;61.00;48.00;;;;;;;;5074604;27;51126;-61
2022/03/09 06:16:47;;;;;;;;;65.75;52.00;;;;;;;;5075239;27;51172;-61
2022/03/09 06:19:13;;;;;;;;;58.75;46.50;;;;;;;;5063055;28;51135;-61
2022/03/09 06:21:38;;;;;;;;;58.25;48.75;;;;;;;;5073074;28;51008;-61
2022/03/09 06:24:04;;;;;;;;;61.25;49.75;;;;;;;;5070999;28;51002;-61
2022/03/09 06:26:29;;;;;;;;;56.00;45.50;;;;;;;;5074029;27;51258;-61
2022/03/09 06:28:54;;;;;;;;;61.00;49.50;;;;;;;;5073737;28;52565;-61
2022/03/09 06:31:19;;;;;;;;;62.00;52.00;;;;;;;;5073845;28;51155;-61
2022/03/09 06:33:44;;;;;;;;;59.50;49.25;;;;;;;;5073504;28;51021;-61
2022/03/09 06:36:10;;;;;;;;;58.25;48.75;;;;;;;;5073973;28;51290;-61
2022/03/09 06:38:35;;;;;;;;;61.75;50.00;;;;;;;;5072756;28;51880;-61
2022/03/09 06:41:00;;;;;;;;;60.50;48.75;;;;;;;;5071376;28;51078;-61
2022/03/09 06:43:26;;;;;;;;;61.00;48.00;;;;;;;;5074336;27;50945;-60
2022/03/09 06:45:51;;;;;;;;;59.50;49.00;;;;;;;;5069510;28;51284;-61
2022/03/09 06:48:16;;;;;;;;;62.75;49.00;;;;;;;;5069886;28;52216;-61
2022/03/09 06:50:41;;;;;;;;;61.25;50.25;;;;;;;;5072545;28;51072;-60
2022/03/09 06:53:07;;;;;;;;;60.75;49.75;;;;;;;;5073155;28;51260;-61
2022/03/09 06:55:32;;;;;;;;;57.75;48.00;;;;;;;;5069695;27;51381;-62
2022/03/09 06:57:57;;;;;;;;;56.50;48.25;;;;;;;;5066676;28;53523;-61
2022/03/09 07:00:23;;;;;;;;;61.75;47.25;;;;;;;;5075390;27;50961;-61
2022/03/09 07:02:48;;;;;;;;;58.25;45.50;;;;;;;;5073175;28;51079;-61
2022/03/09 07:05:14;;;;;;;;;57.50;47.00;;;;;;;;5082891;27;51087;-61
2022/03/09 07:07:39;;;;;;;;;51.75;44.25;;;;;;;;5071268;27;53849;-61
2022/03/09 07:10:05;;;;;;;;;58.50;45.75;;;;;;;;5072730;28;51072;-61
2022/03/09 07:12:30;;;;;;;;;50.25;44.25;;;;;;;;5073025;28;50973;-61
2022/03/09 07:14:56;;;;;;;;;61.00;50.25;;;;;;;;5063654;28;50970;-61
2022/03/09 07:17:21;;;;;;;;;54.25;44.75;;;;;;;;5069115;27;52715;-61
2022/03/09 07:19:46;;;;;;;;;57.75;48.25;;;;;;;;5071182;28;51079;-61
2022/03/09 07:22:11;;;;;;;;;59.75;48.00;;;;;;;;5072016;28;51031;-62
2022/03/09 07:24:37;;;;;;;;;62.00;47.75;;;;;;;;5070328;28;51372;-62
2022/03/09 07:27:02;;;;;;;;;58.50;47.00;;;;;;;;5070325;28;51355;-60
2022/03/09 07:29:28;;;;;;;;;58.50;48.00;;;;;;;;5070206;27;51265;-61
2022/03/09 07:31:53;;;;;;;;;51.75;42.25;;;;;;;;5068946;27;51199;-61
2022/03/09 07:34:19;;;;;;;;;43.00;37.25;;;;;;;;5060852;27;51390;-60
2022/03/09 07:36:44;;;;;;;;;61.75;48.50;;;;;;;;5063487;27;53170;-61
2022/03/09 07:39:10;;;;;;;;;58.25;48.50;;;;;;;;5069424;28;51319;-61
2022/03/09 07:41:35;;;;;;;;;50.00;42.50;;;;;;;;5068699;28;51590;-61
2022/03/09 07:44:00;;;;;;;;;47.75;37.00;;;;;;;;5069153;27;51337;-61
2022/03/09 07:46:26;;;;;;;;;54.25;44.75;;;;;;;;5061145;27;54433;-62
2022/03/09 07:48:51;;;;;;;;;55.50;45.75;;;;;;;;5058684;27;51215;-61
2022/03/09 07:51:16;;;;;;;;;53.25;43.75;;;;;;;;5069816;28;51203;-61
2022/03/09 07:53:43;;;;;;;;;56.00;46.25;;;;;;;;5070371;27;51069;-63
2022/03/09 07:56:11;;;;;;;;;55.75;45.50;;;;;;;;5071325;27;51103;-61
2022/03/09 07:58:37;;;;;;;;;54.75;45.75;;;;;;;;5069762;28;52057;-61
2022/03/09 08:01:03;;;;;;;;;48.25;41.00;;;;;;;;5066163;28;51243;-61
2022/03/09 08:03:28;;;;;;;;;49.00;42.25;;;;;;;;5070216;27;51131;-61
2022/03/09 08:05:53;;;;;;;;;49.25;40.75;;;;;;;;5070416;28;51764;-62
2022/03/09 08:08:18;;;;;;;;;52.50;42.75;;;;;;;;5067236;27;51126;-61
2022/03/09 08:10:44;;;;;;;;;47.00;39.00;;;;;;;;5068805;28;51188;-62
2022/03/09 08:13:09;;;;;;;;;37.50;32.50;;;;;;;;5068089;27;51304;-62
2022/03/09 08:15:35;;;;;;;;;49.25;41.75;;;;;;;;5068108;27;53374;-62
2022/03/09 08:18:00;;;;;;;;;59.25;46.00;;;;;;;;5072033;28;50995;-62
2022/03/09 08:20:25;;;;;;;;;56.75;44.75;;;;;;;;5065258;27;51617;-62
2022/03/09 08:22:50;;;;;;;;;50.25;42.00;;;;;;;;5070774;27;51080;-62
2022/03/09 08:25:16;;;;;;;;;46.50;38.75;;;;;;;;5069464;27;52362;-61
2022/03/09 08:27:41;;;;;;;;;45.25;38.75;;;;;;;;5069277;27;50952;-62
2022/03/09 08:30:06;;;;;;;;;49.25;40.25;;;;;;;;5065942;27;51258;-61
2022/03/09 08:32:32;;;;;;;;;48.00;40.25;;;;;;;;5071072;27;50973;-63
2022/03/09 08:34:57;;;;;;;;;49.50;40.25;;;;;;;;5067831;27;52928;-63
2022/03/09 08:37:22;;;;;;;;;27.75;27.25;;;;;;;;5070190;28;51051;-61
2022/03/09 08:39:48;;;;;;;;;45.75;39.00;;;;;;;;5069169;27;51187;-62
2022/03/09 08:42:14;;;;;;;;;44.50;39.75;;;;;;;;5069984;27;50934;-61
2022/03/09 08:44:40;;;;;;;;;40.75;37.75;;;;;;;;5071308;28;51512;-61
2022/03/09 08:47:06;;;;;;;;;41.25;37.50;;;;;;;;5071373;28;51020;-62
2022/03/09 08:49:33;;;;;;;;;37.50;36.00;;;;;;;;5050441;28;51099;-61
2022/03/09 08:51:58;;;;;;;;;46.50;39.25;;;;;;;;5065226;28;51462;-62
2022/03/09 08:54:23;;;;;;;;;39.75;37.00;;;;;;;;5065625;28;51891;-62
2022/03/09 08:56:48;;;;;;;;;39.75;36.00;;;;;;;;5069958;27;51263;-62
2022/03/09 08:59:13;;;;;;;;;34.00;32.50;;;;;;;;5070326;28;51048;-62
2022/03/09 09:01:39;;;;;;;;;36.25;35.50;;;;;;;;5066756;27;51111;-62
2022/03/09 09:04:04;;;;;;;;;32.75;30.75;;;;;;;;5070314;27;52200;-63
2022/03/09 09:06:29;;;;;;;;;22.00;21.00;;;;;;;;5070488;27;51072;-62
2022/03/09 09:08:54;;;;;;;;;32.00;29.00;;;;;;;;5073028;27;51014;-62
2022/03/09 09:11:20;;;;;;;;;34.25;31.00;;;;;;;;5073180;27;50905;-61
2022/03/09 09:13:45;;;;;;;;;30.50;27.75;;;;;;;;5073915;27;51935;-61
2022/03/09 09:16:10;;;;;;;;;25.50;21.75;;;;;;;;5073828;28;51005;-62
2022/03/09 09:18:35;;;;;;;;;32.00;30.00;;;;;;;;5073839;27;51159;-63
2022/03/09 09:21:01;;;;;;;;;42.00;38.00;;;;;;;;5072767;28;51267;-62
2022/03/09 09:23:26;;;;;;;;;34.25;34.25;;;;;;;;5072648;28;53572;-62
2022/03/09 09:25:51;;;;;;;;;33.50;29.00;;;;;;;;5073652;28;51047;-61
2022/03/09 09:28:17;;;;;;;;;31.75;28.25;;;;;;;;5074171;28;51337;-61
2022/03/09 09:30:42;;;;;;;;;38.75;33.00;;;;;;;;5072518;28;51280;-62
2022/03/09 09:33:08;;;;;;;;;38.00;35.25;;;;;;;;5070496;27;52219;-62
2022/03/09 09:35:33;;;;;;;;;34.50;33.25;;;;;;;;5069119;28;51087;-61
2022/03/09 09:38:06;;;;;;;;;30.00;28.50;;;;;;;;5066549;28;51151;-61
2022/03/09 09:40:32;;;;;;;;;28.75;27.00;;;;;;;;5069656;28;51095;-61
2022/03/09 09:42:57;;;;;;;;;33.00;27.75;;;;;;;;5065089;28;51145;-61
2022/03/09 09:45:22;;;;;;;;;30.50;27.00;;;;;;;;5067019;28;51305;-62
2022/03/09 09:47:48;;;;;;;;;23.25;23.25;;;;;;;;5069596;28;51158;-62
2022/03/09 09:50:14;;;;;;;;;29.75;27.00;;;;;;;;5074063;28;51319;-62
2022/03/09 09:52:40;;;;;;;;;28.75;28.75;;;;;;;;5071496;27;51559;-62
2022/03/09 09:55:07;;;;;;;;;27.25;25.25;;;;;;;;5068982;28;50938;-62
2022/03/09 09:57:32;;;;;;;;;27.00;27.00;;;;;;;;5052981;28;51027;-62
2022/03/09 09:59:58;;;;;;;;;31.50;28.25;;;;;;;;5071505;27;51281;-62
2022/03/09 10:02:24;;;;;;;;;24.50;23.50;;;;;;;;5069343;27;51687;-61
2022/03/09 10:04:50;;;;;;;;;18.00;17.50;;;;;;;;5068989;27;51116;-62
2022/03/09 10:07:15;;;;;;;;;22.50;21.00;;;;;;;;5067326;28;51131;-60
2022/03/09 10:09:41;;;;;;;;;20.00;19.00;;;;;;;;5065988;28;51439;-61
2022/03/09 10:12:07;;;;;;;;;23.25;22.75;;;;;;;;5073162;28;51318;-62
2022/03/09 10:14:52;;;;;;;;;19.50;18.75;;;;;;;;5072908;28;51124;-62
2022/03/09 10:17:25;;;;;;;;;17.67;17.00;;;;;;;;5064978;28;51292;-61
2022/03/09 10:19:55;;;;;;;;;14.67;13.67;;;;;;;;5066024;28;50886;-62
2022/03/09 10:22:52;;;;;;;;;18.00;17.67;;;;;;;;5070709;28;52739;-62
2022/03/09 10:25:18;;;;;;;;;16.00;16.00;;;;;;;;5059204;27;51110;-62
2022/03/09 10:27:44;;;;;;;;;20.00;19.25;;;;;;;;5071759;27;50840;-62
2022/03/09 10:30:13;;;;;;;;;18.50;18.50;;;;;;;;5072103;27;51022;-62
2022/03/09 10:32:42;;;;;;;;;20.33;19.33;;;;;;;;5067119;27;51040;-62
2022/03/09 10:35:07;;;;;;;;;20.75;20.50;;;;;;;;5069384;28;51045;-62
2022/03/09 10:37:40;;;;;;;;;19.50;19.00;;;;;;;;5070525;27;51273;-63
2022/03/09 10:40:13;;;;;;;;;19.00;18.67;;;;;;;;5059260;27;51104;-64
2022/03/09 10:42:39;;;;;;;;;24.00;23.00;;;;;;;;5079534;27;53154;-61
2022/03/09 10:45:09;;;;;;;;;18.67;18.33;;;;;;;;5068516;27;51154;-62
2022/03/09 10:47:39;;;;;;;;;20.50;19.50;;;;;;;;5069531;27;51057;-60
2022/03/09 10:50:07;;;;;;;;;24.00;24.00;;;;;;;;5068051;27;51460;-61
2022/03/09 10:52:44;;;;;;;;;20.33;19.33;;;;;;;;5066853;27;52012;-61
2022/03/09 10:55:22;;;;;;;;;18.33;17.33;;;;;;;;5066021;27;50994;-62
2022/03/09 10:57:47;;;;;;;;;18.67;18.00;;;;;;;;5061554;27;52425;-63
2022/03/09 11:00:13;;;;;;;;;17.00;16.67;;;;;;;;5061410;27;51105;-62
2022/03/09 11:02:51;;;;;;;;;12.67;12.67;;;;;;;;5055004;28;53716;-62
2022/03/09 11:05:22;;;;;;;;;10.67;10.33;;;;;;;;5057264;27;51191;-62
2022/03/09 11:07:49;;;;;;;;;16.00;14.00;;;;;;;;5057067;27;52267;-63
2022/03/09 11:10:14;;;;;;;;;15.67;15.00;;;;;;;;5056035;27;51480;-64
2022/03/09 11:12:40;;;;;;;;;15.67;15.67;;;;;;;;5056362;27;53373;-62
2022/03/09 11:15:06;;;;;;;;;11.67;11.67;;;;;;;;5058524;27;51821;-62
2022/03/09 11:17:32;;;;;;;;;13.33;13.33;;;;;;;;5056253;27;51328;-62
2022/03/09 11:19:58;;;;;;;;;10.33;10.33;;;;;;;;5056897;27;51489;-61
2022/03/09 11:22:25;;;;;;;;;13.00;12.67;;;;;;;;5058730;28;53512;-61
2022/03/09 11:24:52;;;;;;;;;10.67;10.67;;;;;;;;5091415;27;51509;-62
2022/03/09 11:27:17;;;;;;;;;16.33;13.00;;;;;;;;5052210;27;51155;-62
2022/03/09 11:29:42;;;;;;;;;14.00;14.00;;;;;;;;5058595;27;51399;-62
2022/03/09 11:32:09;;;;;;;;;13.33;12.67;;;;;;;;5057243;27;51693;-66
2022/03/09 11:34:38;;;;;;;;;13.00;13.00;;;;;;;;5056080;27;51332;-66
2022/03/09 11:37:12;;;;;;;;;14.00;13.33;;;;;;;;5055686;27;52854;-66
2022/03/09 11:40:00;;;;;;;;;15.33;14.33;;;;;;;;5058995;27;51227;-65
2022/03/09 11:42:28;;;;;;;;;16.67;16.00;;;;;;;;5050878;27;52270;-67
2022/03/09 11:45:13;;;;;;;;;12.67;11.67;;;;;;;;5038332;27;51491;-67
2022/03/09 11:47:55;;;;;;;;;13.00;12.00;;;;;;;;5059241;27;50993;-65
2022/03/09 11:50:21;;;;;;;;;17.33;17.00;;;;;;;;5052283;27;51714;-66
2022/03/09 11:53:12;;;;;;;;;10.67;10.67;;;;;;;;5055859;27;51073;-65
2022/03/09 11:55:37;;;;;;;;;17.33;17.33;;;;;;;;5059031;27;51315;-65
2022/03/09 11:58:10;;;;;;;;;14.33;13.67;;;;;;;;5061184;27;51334;-65
2022/03/09 12:00:36;;;;;;;;;9.67;9.33;;;;;;;;5065902;28;51407;-65
2022/03/09 12:03:02;;;;;;;;;14.33;13.33;;;;;;;;5061962;27;52137;-65
2022/03/09 12:05:27;;;;;;;;;15.33;14.00;;;;;;;;5068404;27;51310;-65
2022/03/09 12:07:53;;;;;;;;;13.67;13.67;;;;;;;;5069345;28;51068;-66
2022/03/09 12:10:21;;;;;;;;;18.00;17.00;;;;;;;;5066800;27;51485;-66
2022/03/09 12:13:16;;;;;;;;;15.00;14.33;;;;;;;;5066151;27;51922;-66
2022/03/09 12:16:00;;;;;;;;;13.00;13.00;;;;;;;;5053458;27;51290;-65
2022/03/09 12:18:40;;;;;;;;;17.67;16.67;;;;;;;;5068825;28;50957;-64
2022/03/09 12:21:07;;;;;;;;;14.33;14.33;;;;;;;;5068137;28;50948;-66
2022/03/09 12:23:33;;;;;;;;;13.67;13.00;;;;;;;;5069375;27;51267;-65
2022/03/09 12:25:58;;;;;;;;;13.67;12.67;;;;;;;;5074057;27;51076;-65
2022/03/09 12:28:24;;;;;;;;;18.67;17.67;;;;;;;;5071289;27;51068;-65
2022/03/09 12:30:51;;;;;;;;;13.00;12.67;;;;;;;;5067405;27;50985;-65
2022/03/09 12:33:25;;;;;;;;;13.00;13.00;;;;;;;;5068960;27;51386;-65
2022/03/09 12:35:51;;;;;;;;;13.00;13.00;;;;;;;;5069094;27;50953;-66
2022/03/09 12:38:17;;;;;;;;;14.33;13.67;;;;;;;;5069159;27;51194;-66
2022/03/09 12:40:49;;;;;;;;;11.33;11.00;;;;;;;;5069413;27;50893;-67
2022/03/09 12:43:16;;;;;;;;;11.67;11.00;;;;;;;;5066614;27;52857;-65
2022/03/09 12:45:52;;;;;;;;;11.00;10.67;;;;;;;;5071670;27;51124;-67
2022/03/09 12:48:18;;;;;;;;;11.00;10.67;;;;;;;;5069287;28;51510;-66
2022/03/09 12:50:43;;;;;;;;;9.67;9.67;;;;;;;;5073748;28;51206;-65
2022/03/09 12:53:09;;;;;;;;;14.00;13.00;;;;;;;;5070842;28;53229;-66
2022/03/09 12:55:36;;;;;;;;;14.67;14.33;;;;;;;;5073040;28;51056;-65
2022/03/09 12:58:01;;;;;;;;;16.33;15.33;;;;;;;;5063181;27;51411;-65
2022/03/09 13:00:29;;;;;;;;;9.00;9.00;;;;;;;;5072001;28;50993;-65
2022/03/09 13:02:55;;;;;;;;;12.33;11.33;;;;;;;;5072247;28;51369;-65
2022/03/09 13:05:22;;;;;;;;;12.33;12.33;;;;;;;;5065787;28;50929;-65
2022/03/09 13:07:53;;;;;;;;;12.00;11.67;;;;;;;;5072462;28;51001;-65
2022/03/09 13:10:19;;;;;;;;;11.00;11.00;;;;;;;;5073006;28;51029;-66
2022/03/09 13:12:49;;;;;;;;;19.75;19.25;;;;;;;;5071893;27;51659;-64
2022/03/09 13:15:15;;;;;;;;;13.00;12.00;;;;;;;;5071140;27;51132;-65
2022/03/09 13:17:44;;;;;;;;;12.00;12.00;;;;;;;;5072376;27;51055;-65
2022/03/09 13:20:10;;;;;;;;;10.00;10.00;;;;;;;;5072128;27;51097;-65
2022/03/09 13:22:45;;;;;;;;;13.00;11.67;;;;;;;;5072204;27;51763;-65
2022/03/09 13:25:11;;;;;;;;;13.33;12.67;;;;;;;;5072674;27;51074;-64
2022/03/09 13:27:37;;;;;;;;;12.00;11.67;;;;;;;;5071667;27;51154;-64
2022/03/09 13:30:12;;;;;;;;;15.00;14.00;;;;;;;;5072057;28;51064;-65
2022/03/09 13:32:38;;;;;;;;;14.00;14.00;;;;;;;;5073466;27;51823;-64
2022/03/09 13:35:04;;;;;;;;;11.00;10.67;;;;;;;;5059514;27;51143;-65
2022/03/09 13:37:37;;;;;;;;;16.50;16.25;;;;;;;;5069939;27;51270;-63
2022/03/09 13:40:07;;;;;;;;;16.00;15.00;;;;;;;;5066045;27;51524;-63
2022/03/09 13:42:37;;;;;;;;;14.33;14.33;;;;;;;;5070876;27;53041;-63
2022/03/09 13:45:03;;;;;;;;;13.50;13.50;;;;;;;;5067894;27;51217;-62
2022/03/09 13:47:28;;;;;;;;;16.33;14.33;;;;;;;;5071315;27;51132;-62
2022/03/09 13:49:54;;;;;;;;;15.00;15.00;;;;;;;;5072972;28;51172;-63
2022/03/09 13:52:20;;;;;;;;;16.00;15.00;;;;;;;;5076125;27;53639;-62
2022/03/09 13:54:46;;;;;;;;;18.50;17.50;;;;;;;;5068404;27;51226;-62
2022/03/09 13:57:12;;;;;;;;;15.75;14.25;;;;;;;;5070950;27;51263;-62
2022/03/09 13:59:38;;;;;;;;;16.00;16.00;;;;;;;;5055067;28;51330;-61
2022/03/09 14:02:17;;;;;;;;;19.00;19.00;;;;;;;;5070805;27;51512;-61
2022/03/09 14:04:46;;;;;;;;;19.75;18.25;;;;;;;;5072306;28;51090;-63
2022/03/09 14:07:11;;;;;;;;;16.00;14.00;;;;;;;;5070463;27;51178;-62
2022/03/09 14:09:36;;;;;;;;;14.00;14.00;;;;;;;;5072597;28;51346;-62
2022/03/09 14:12:14;;;;;;;;;21.75;21.25;;;;;;;;5069817;27;52873;-62
2022/03/09 14:14:40;;;;;;;;;19.00;17.50;;;;;;;;5071671;28;51000;-62